Search for airport 
image banner adimage banner adimage banner ad
image banner ad

FZAB - Kinshasa N'dolo

Located in Kinshasa N'dolo, Congo, the Democratic Republic of the

ICAO - FZAB, IATA - NLO

Data provided by Airmate  

General information

Coordinates: S4°18'60" E15°18'60"
Elevation is 951 feet MSL.
 
View others Airports in Kinshasa

Operational data

Special qualification required
Current time UTC:
Current local time:
Weather at : FCBB - Brazzaville/Maya-Maya ( 10 km )
METAR: FCBB 191100Z 23009KT 9999 FEW015 BKN021 27/21 Q1014 NOSIG
TAF: TAF FCBB 190500Z 1906/2012 24006KT 8000 SCT016 BECMG 1913/1915 SCT020 FEW030CB PROB30 1917/1919 TS BECMG 1919/1921 FEW018
View NOTAMs / SUP AIP / TFR affecting this airport [VIEW]
Communications frequencies: [VIEW]

Runways:

RWY identifierQFULength (ft)Width (ft)SurfaceLDA (ft)
0772°524998
25252°524998

Airport contact information

Address: Kinshasa N'dolo Congo, the Democratic Republic of the

Satellite view of FZAB